sensor_id;sensor_type;location;lat;lon;timestamp;P1;durP1;ratioP1;P2;durP2;ratioP2
52964;SDS011;42923;53.220;6.528;2024-03-23T00:54:42;29.40;;;9.25;;
52964;SDS011;42923;53.220;6.528;2024-03-23T00:57:07;36.38;;;9.00;;
52964;SDS011;42923;53.220;6.528;2024-03-23T00:59:33;34.38;;;8.90;;
52964;SDS011;42923;53.220;6.528;2024-03-23T01:01:59;31.75;;;9.77;;
52964;SDS011;42923;53.220;6.528;2024-03-23T01:04:24;42.60;;;10.45;;
52964;SDS011;42923;53.220;6.528;2024-03-23T01:06:50;32.33;;;9.40;;
52964;SDS011;42923;53.220;6.528;2024-03-23T01:09:16;44.23;;;9.63;;
52964;SDS011;42923;53.220;6.528;2024-03-23T01:11:41;32.10;;;9.13;;
52964;SDS011;42923;53.220;6.528;2024-03-23T01:14:07;40.50;;;10.33;;
52964;SDS011;42923;53.220;6.528;2024-03-23T01:16:33;37.27;;;10.73;;
52964;SDS011;42923;53.220;6.528;2024-03-23T01:18:58;32.67;;;10.20;;
52964;SDS011;42923;53.220;6.528;2024-03-23T01:21:24;37.75;;;10.70;;
52964;SDS011;42923;53.220;6.528;2024-03-23T01:23:50;39.28;;;9.75;;
52964;SDS011;42923;53.220;6.528;2024-03-23T01:26:15;36.78;;;10.07;;
52964;SDS011;42923;53.220;6.528;2024-03-23T01:28:41;42.22;;;10.52;;
52964;SDS011;42923;53.220;6.528;2024-03-23T01:31:07;37.05;;;9.52;;
52964;SDS011;42923;53.220;6.528;2024-03-23T01:33:32;37.97;;;9.75;;
52964;SDS011;42923;53.220;6.528;2024-03-23T01:35:58;40.10;;;10.63;;
52964;SDS011;42923;53.220;6.528;2024-03-23T01:38:24;39.75;;;10.48;;
52964;SDS011;42923;53.220;6.528;2024-03-23T01:40:55;42.00;;;10.77;;
52964;SDS011;42923;53.220;6.528;2024-03-23T01:43:22;37.38;;;10.63;;
52964;SDS011;42923;53.220;6.528;2024-03-23T01:45:48;37.33;;;10.07;;
52964;SDS011;42923;53.220;6.528;2024-03-23T01:48:13;44.88;;;11.05;;
52964;SDS011;42923;53.220;6.528;2024-03-23T01:50:39;32.67;;;10.75;;
52964;SDS011;42923;53.220;6.528;2024-03-23T01:53:05;36.17;;;9.75;;
52964;SDS011;42923;53.220;6.528;2024-03-23T01:55:32;40.58;;;10.45;;
52964;SDS011;42923;53.220;6.528;2024-03-23T01:57:58;39.30;;;10.57;;
52964;SDS011;42923;53.220;6.528;2024-03-23T02:00:24;36.88;;;9.95;;
52964;SDS011;42923;53.220;6.528;2024-03-23T02:02:50;39.95;;;10.25;;
52964;SDS011;42923;53.220;6.528;2024-03-23T02:05:16;37.30;;;10.37;;
52964;SDS011;42923;53.220;6.528;2024-03-23T02:07:42;37.67;;;10.65;;
52964;SDS011;42923;53.220;6.528;2024-03-23T02:10:09;33.00;;;10.27;;
52964;SDS011;42923;53.220;6.528;2024-03-23T02:12:35;34.58;;;10.15;;
52964;SDS011;42923;53.220;6.528;2024-03-23T02:15:02;35.07;;;10.13;;
52964;SDS011;42923;53.220;6.528;2024-03-23T02:17:30;39.08;;;10.43;;
52964;SDS011;42923;53.220;6.528;2024-03-23T02:19:58;38.10;;;10.00;;
52964;SDS011;42923;53.220;6.528;2024-03-23T02:22:24;35.63;;;10.20;;
52964;SDS011;42923;53.220;6.528;2024-03-23T02:24:50;42.03;;;10.77;;
52964;SDS011;42923;53.220;6.528;2024-03-23T02:27:15;30.20;;;9.60;;
52964;SDS011;42923;53.220;6.528;2024-03-23T02:29:41;34.10;;;9.27;;
52964;SDS011;42923;53.220;6.528;2024-03-23T02:32:07;36.07;;;10.33;;
52964;SDS011;42923;53.220;6.528;2024-03-23T02:34:34;36.60;;;10.23;;
52964;SDS011;42923;53.220;6.528;2024-03-23T02:37:00;36.70;;;9.70;;
52964;SDS011;42923;53.220;6.528;2024-03-23T02:39:26;32.53;;;9.47;;
52964;SDS011;42923;53.220;6.528;2024-03-23T02:41:51;33.08;;;10.20;;
52964;SDS011;42923;53.220;6.528;2024-03-23T02:44:17;35.63;;;9.18;;
52964;SDS011;42923;53.220;6.528;2024-03-23T02:46:43;33.72;;;11.02;;
52964;SDS011;42923;53.220;6.528;2024-03-23T02:49:08;31.75;;;9.13;;
52964;SDS011;42923;53.220;6.528;2024-03-23T02:51:34;36.47;;;9.25;;
52964;SDS011;42923;53.220;6.528;2024-03-23T02:54:00;32.10;;;8.65;;
52964;SDS011;42923;53.220;6.528;2024-03-23T02:56:25;28.20;;;8.85;;
52964;SDS011;42923;53.220;6.528;2024-03-23T02:58:51;31.17;;;9.32;;
52964;SDS011;42923;53.220;6.528;2024-03-23T03:01:17;35.35;;;9.23;;
52964;SDS011;42923;53.220;6.528;2024-03-23T03:03:42;31.45;;;9.07;;
52964;SDS011;42923;53.220;6.528;2024-03-23T03:06:09;30.17;;;8.88;;
52964;SDS011;42923;53.220;6.528;2024-03-23T03:08:34;28.02;;;8.52;;
52964;SDS011;42923;53.220;6.528;2024-03-23T03:11:00;36.45;;;8.88;;
52964;SDS011;42923;53.220;6.528;2024-03-23T03:13:26;31.35;;;8.82;;
52964;SDS011;42923;53.220;6.528;2024-03-23T03:15:52;29.70;;;8.23;;
52964;SDS011;42923;53.220;6.528;2024-03-23T03:18:18;31.67;;;7.80;;
52964;SDS011;42923;53.220;6.528;2024-03-23T03:20:44;28.10;;;8.35;;
52964;SDS011;42923;53.220;6.528;2024-03-23T03:23:10;25.45;;;8.07;;
52964;SDS011;42923;53.220;6.528;2024-03-23T03:25:36;28.73;;;8.37;;
52964;SDS011;42923;53.220;6.528;2024-03-23T03:28:02;30.83;;;7.80;;
52964;SDS011;42923;53.220;6.528;2024-03-23T03:30:29;30.20;;;8.00;;
52964;SDS011;42923;53.220;6.528;2024-03-23T03:32:54;31.17;;;7.65;;
52964;SDS011;42923;53.220;6.528;2024-03-23T03:35:20;28.25;;;7.57;;
52964;SDS011;42923;53.220;6.528;2024-03-23T03:37:46;23.67;;;7.50;;
52964;SDS011;42923;53.220;6.528;2024-03-23T03:40:12;26.80;;;6.80;;
52964;SDS011;42923;53.220;6.528;2024-03-23T03:42:40;26.75;;;7.50;;
52964;SDS011;42923;53.220;6.528;2024-03-23T03:45:06;29.70;;;7.90;;
52964;SDS011;42923;53.220;6.528;2024-03-23T03:47:32;27.25;;;7.38;;
52964;SDS011;42923;53.220;6.528;2024-03-23T03:49:58;32.25;;;7.70;;
52964;SDS011;42923;53.220;6.528;2024-03-23T03:52:24;27.00;;;7.10;;
52964;SDS011;42923;53.220;6.528;2024-03-23T03:54:50;25.33;;;7.40;;
52964;SDS011;42923;53.220;6.528;2024-03-23T03:57:16;29.95;;;8.10;;
52964;SDS011;42923;53.220;6.528;2024-03-23T03:59:42;25.38;;;7.68;;
52964;SDS011;42923;53.220;6.528;2024-03-23T04:02:07;29.02;;;8.18;;
52964;SDS011;42923;53.220;6.528;2024-03-23T04:04:33;30.63;;;8.23;;
52964;SDS011;42923;53.220;6.528;2024-03-23T04:07:02;26.02;;;7.57;;
52964;SDS011;42923;53.220;6.528;2024-03-23T04:09:28;28.05;;;7.80;;
52964;SDS011;42923;53.220;6.528;2024-03-23T04:11:55;23.40;;;7.18;;
52964;SDS011;42923;53.220;6.528;2024-03-23T04:14:21;25.05;;;7.80;;
52964;SDS011;42923;53.220;6.528;2024-03-23T04:16:46;25.17;;;7.27;;
52964;SDS011;42923;53.220;6.528;2024-03-23T04:19:12;22.23;;;7.03;;
52964;SDS011;42923;53.220;6.528;2024-03-23T04:21:37;28.37;;;7.30;;
52964;SDS011;42923;53.220;6.528;2024-03-23T04:24:04;28.73;;;7.70;;
52964;SDS011;42923;53.220;6.528;2024-03-23T04:26:30;28.58;;;7.07;;
52964;SDS011;42923;53.220;6.528;2024-03-23T04:29:05;27.73;;;7.40;;
52964;SDS011;42923;53.220;6.528;2024-03-23T04:31:31;27.23;;;7.53;;
52964;SDS011;42923;53.220;6.528;2024-03-23T04:33:59;27.77;;;7.15;;
52964;SDS011;42923;53.220;6.528;2024-03-23T04:36:28;24.45;;;6.55;;
52964;SDS011;42923;53.220;6.528;2024-03-23T04:38:53;26.08;;;7.03;;
52964;SDS011;42923;53.220;6.528;2024-03-23T04:41:19;26.52;;;7.10;;
52964;SDS011;42923;53.220;6.528;2024-03-23T04:43:45;25.35;;;6.82;;
52964;SDS011;42923;53.220;6.528;2024-03-23T04:46:10;26.35;;;7.00;;
52964;SDS011;42923;53.220;6.528;2024-03-23T04:48:36;21.85;;;7.07;;
52964;SDS011;42923;53.220;6.528;2024-03-23T04:51:02;19.80;;;5.95;;
52964;SDS011;42923;53.220;6.528;2024-03-23T04:53:28;24.00;;;6.85;;
52964;SDS011;42923;53.220;6.528;2024-03-23T04:55:57;23.02;;;6.30;;
52964;SDS011;42923;53.220;6.528;2024-03-23T04:58:24;24.83;;;6.25;;
52964;SDS011;42923;53.220;6.528;2024-03-23T05:00:56;25.05;;;6.40;;
52964;SDS011;42923;53.220;6.528;2024-03-23T05:03:22;24.20;;;6.25;;
52964;SDS011;42923;53.220;6.528;2024-03-23T05:05:49;20.57;;;6.63;;
52964;SDS011;42923;53.220;6.528;2024-03-23T05:08:15;24.67;;;6.25;;
52964;SDS011;42923;53.220;6.528;2024-03-23T05:10:41;19.73;;;6.07;;
52964;SDS011;42923;53.220;6.528;2024-03-23T05:13:08;23.58;;;6.18;;
52964;SDS011;42923;53.220;6.528;2024-03-23T05:15:34;25.58;;;5.93;;
52964;SDS011;42923;53.220;6.528;2024-03-23T05:18:00;23.33;;;6.40;;
52964;SDS011;42923;53.220;6.528;2024-03-23T05:20:26;23.75;;;6.55;;
52964;SDS011;42923;53.220;6.528;2024-03-23T05:22:51;26.60;;;6.10;;
52964;SDS011;42923;53.220;6.528;2024-03-23T05:25:17;24.27;;;5.95;;
52964;SDS011;42923;53.220;6.528;2024-03-23T05:27:43;27.52;;;6.53;;
52964;SDS011;42923;53.220;6.528;2024-03-23T05:30:08;25.98;;;6.80;;
52964;SDS011;42923;53.220;6.528;2024-03-23T05:32:36;25.80;;;6.65;;
52964;SDS011;42923;53.220;6.528;2024-03-23T05:35:01;23.77;;;6.30;;
52964;SDS011;42923;53.220;6.528;2024-03-23T05:37:27;22.30;;;6.60;;
52964;SDS011;42923;53.220;6.528;2024-03-23T05:39:53;24.90;;;6.32;;
52964;SDS011;42923;53.220;6.528;2024-03-23T05:42:19;22.85;;;5.78;;
52964;SDS011;42923;53.220;6.528;2024-03-23T05:44:44;28.83;;;5.82;;
52964;SDS011;42923;53.220;6.528;2024-03-23T05:47:10;21.73;;;5.82;;
52964;SDS011;42923;53.220;6.528;2024-03-23T05:49:38;19.30;;;5.72;;
52964;SDS011;42923;53.220;6.528;2024-03-23T05:52:04;24.88;;;5.93;;
52964;SDS011;42923;53.220;6.528;2024-03-23T05:54:30;21.73;;;5.68;;
52964;SDS011;42923;53.220;6.528;2024-03-23T05:56:55;22.65;;;6.18;;
52964;SDS011;42923;53.220;6.528;2024-03-23T05:59:21;21.70;;;5.13;;
52964;SDS011;42923;53.220;6.528;2024-03-23T06:01:47;20.70;;;4.60;;
52964;SDS011;42923;53.220;6.528;2024-03-23T06:04:13;22.98;;;5.55;;
52964;SDS011;42923;53.220;6.528;2024-03-23T06:06:41;19.13;;;5.07;;
52964;SDS011;42923;53.220;6.528;2024-03-23T06:09:07;17.77;;;5.03;;
52964;SDS011;42923;53.220;6.528;2024-03-23T06:11:33;19.50;;;5.72;;
52964;SDS011;42923;53.220;6.528;2024-03-23T06:13:58;16.55;;;4.97;;
52964;SDS011;42923;53.220;6.528;2024-03-23T06:16:24;18.00;;;4.43;;
52964;SDS011;42923;53.220;6.528;2024-03-23T06:18:50;14.35;;;4.15;;
52964;SDS011;42923;53.220;6.528;2024-03-23T06:21:16;15.70;;;4.20;;
52964;SDS011;42923;53.220;6.528;2024-03-23T06:23:42;12.90;;;3.70;;
52964;SDS011;42923;53.220;6.528;2024-03-23T06:26:08;16.77;;;5.07;;
52964;SDS011;42923;53.220;6.528;2024-03-23T06:28:33;16.00;;;3.80;;
52964;SDS011;42923;53.220;6.528;2024-03-23T06:30:59;17.23;;;4.40;;
52964;SDS011;42923;53.220;6.528;2024-03-23T06:33:25;15.45;;;3.92;;
52964;SDS011;42923;53.220;6.528;2024-03-23T06:35:51;15.23;;;3.73;;
52964;SDS011;42923;53.220;6.528;2024-03-23T06:38:17;16.02;;;4.57;;
52964;SDS011;42923;53.220;6.528;2024-03-23T06:40:43;12.82;;;3.60;;
52964;SDS011;42923;53.220;6.528;2024-03-23T06:43:13;15.30;;;4.22;;
52964;SDS011;42923;53.220;6.528;2024-03-23T06:45:39;14.07;;;3.60;;
52964;SDS011;42923;53.220;6.528;2024-03-23T06:48:05;12.93;;;3.50;;
52964;SDS011;42923;53.220;6.528;2024-03-23T06:50:33;14.82;;;4.45;;
52964;SDS011;42923;53.220;6.528;2024-03-23T06:52:59;14.50;;;3.80;;
52964;SDS011;42923;53.220;6.528;2024-03-23T06:55:27;14.32;;;4.22;;
52964;SDS011;42923;53.220;6.528;2024-03-23T06:57:53;14.33;;;4.07;;
52964;SDS011;42923;53.220;6.528;2024-03-23T07:00:19;12.90;;;3.63;;
52964;SDS011;42923;53.220;6.528;2024-03-23T07:02:44;13.53;;;3.67;;
52964;SDS011;42923;53.220;6.528;2024-03-23T07:05:10;13.10;;;3.50;;
52964;SDS011;42923;53.220;6.528;2024-03-23T07:07:37;14.23;;;3.33;;
52964;SDS011;42923;53.220;6.528;2024-03-23T07:10:04;12.75;;;3.45;;
52964;SDS011;42923;53.220;6.528;2024-03-23T07:12:30;12.43;;;3.40;;
52964;SDS011;42923;53.220;6.528;2024-03-23T07:14:56;12.93;;;3.53;;
52964;SDS011;42923;53.220;6.528;2024-03-23T07:17:22;11.15;;;3.00;;
52964;SDS011;42923;53.220;6.528;2024-03-23T07:19:48;13.15;;;3.55;;
52964;SDS011;42923;53.220;6.528;2024-03-23T07:22:13;12.45;;;3.20;;
52964;SDS011;42923;53.220;6.528;2024-03-23T07:24:39;10.02;;;3.10;;
52964;SDS011;42923;53.220;6.528;2024-03-23T07:27:06;12.18;;;2.75;;
52964;SDS011;42923;53.220;6.528;2024-03-23T07:29:35;10.13;;;3.25;;
52964;SDS011;42923;53.220;6.528;2024-03-23T07:32:01;9.55;;;3.05;;
52964;SDS011;42923;53.220;6.528;2024-03-23T07:34:27;9.52;;;2.97;;
52964;SDS011;42923;53.220;6.528;2024-03-23T07:36:53;10.45;;;2.83;;
52964;SDS011;42923;53.220;6.528;2024-03-23T07:39:18;10.77;;;3.03;;
52964;SDS011;42923;53.220;6.528;2024-03-23T07:41:44;10.00;;;3.13;;
52964;SDS011;42923;53.220;6.528;2024-03-23T07:44:10;9.98;;;3.08;;
52964;SDS011;42923;53.220;6.528;2024-03-23T07:46:36;7.68;;;2.10;;
52964;SDS011;42923;53.220;6.528;2024-03-23T07:49:03;6.00;;;2.28;;
52964;SDS011;42923;53.220;6.528;2024-03-23T07:51:29;6.55;;;2.25;;
52964;SDS011;42923;53.220;6.528;2024-03-23T07:53:55;7.87;;;2.80;;
52964;SDS011;42923;53.220;6.528;2024-03-23T07:56:21;8.17;;;2.30;;
52964;SDS011;42923;53.220;6.528;2024-03-23T07:58:48;7.15;;;2.50;;
52964;SDS011;42923;53.220;6.528;2024-03-23T08:01:15;5.68;;;2.15;;
52964;SDS011;42923;53.220;6.528;2024-03-23T08:03:42;8.73;;;2.40;;
52964;SDS011;42923;53.220;6.528;2024-03-23T08:06:10;9.85;;;2.53;;
52964;SDS011;42923;53.220;6.528;2024-03-23T08:08:37;8.23;;;2.30;;
52964;SDS011;42923;53.220;6.528;2024-03-23T08:11:03;8.45;;;1.98;;
52964;SDS011;42923;53.220;6.528;2024-03-23T08:13:30;5.72;;;2.03;;
52964;SDS011;42923;53.220;6.528;2024-03-23T08:15:56;6.97;;;2.20;;
52964;SDS011;42923;53.220;6.528;2024-03-23T08:18:22;8.80;;;2.70;;
52964;SDS011;42923;53.220;6.528;2024-03-23T08:20:55;8.80;;;2.27;;
52964;SDS011;42923;53.220;6.528;2024-03-23T08:23:22;6.60;;;2.13;;
52964;SDS011;42923;53.220;6.528;2024-03-23T08:25:49;5.88;;;2.20;;
52964;SDS011;42923;53.220;6.528;2024-03-23T08:28:15;9.23;;;2.40;;
52964;SDS011;42923;53.220;6.528;2024-03-23T08:30:40;8.73;;;3.27;;
52964;SDS011;42923;53.220;6.528;2024-03-23T08:33:06;9.20;;;2.70;;
52964;SDS011;42923;53.220;6.528;2024-03-23T08:35:32;9.20;;;2.83;;
52964;SDS011;42923;53.220;6.528;2024-03-23T08:37:57;10.32;;;2.80;;
52964;SDS011;42923;53.220;6.528;2024-03-23T08:40:23;8.35;;;2.75;;
52964;SDS011;42923;53.220;6.528;2024-03-23T08:42:49;9.33;;;2.83;;
52964;SDS011;42923;53.220;6.528;2024-03-23T08:45:14;9.63;;;2.73;;
52964;SDS011;42923;53.220;6.528;2024-03-23T08:47:40;10.85;;;2.78;;
52964;SDS011;42923;53.220;6.528;2024-03-23T08:50:06;10.30;;;3.10;;
52964;SDS011;42923;53.220;6.528;2024-03-23T08:52:32;10.48;;;3.13;;
52964;SDS011;42923;53.220;6.528;2024-03-23T08:54:57;10.52;;;3.38;;
52964;SDS011;42923;53.220;6.528;2024-03-23T08:57:23;11.13;;;3.10;;
52964;SDS011;42923;53.220;6.528;2024-03-23T08:59:49;10.43;;;3.13;;
52964;SDS011;42923;53.220;6.528;2024-03-23T09:02:15;13.68;;;3.53;;
52964;SDS011;42923;53.220;6.528;2024-03-23T09:04:41;15.43;;;4.03;;
52964;SDS011;42923;53.220;6.528;2024-03-23T09:07:06;10.53;;;3.07;;
52964;SDS011;42923;53.220;6.528;2024-03-23T09:09:32;11.30;;;3.77;;
52964;SDS011;42923;53.220;6.528;2024-03-23T09:11:58;11.45;;;3.08;;
52964;SDS011;42923;53.220;6.528;2024-03-23T09:14:23;13.05;;;3.70;;
52964;SDS011;42923;53.220;6.528;2024-03-23T09:16:49;13.63;;;3.63;;
52964;SDS011;42923;53.220;6.528;2024-03-23T09:19:17;10.68;;;3.35;;
52964;SDS011;42923;53.220;6.528;2024-03-23T09:21:43;10.82;;;2.97;;
52964;SDS011;42923;53.220;6.528;2024-03-23T09:24:08;10.57;;;2.92;;
52964;SDS011;42923;53.220;6.528;2024-03-23T09:26:34;8.13;;;2.40;;
52964;SDS011;42923;53.220;6.528;2024-03-23T09:29:00;15.73;;;3.72;;
52964;SDS011;42923;53.220;6.528;2024-03-23T09:31:25;12.30;;;2.03;;
52964;SDS011;42923;53.220;6.528;2024-03-23T09:33:51;12.17;;;3.17;;
52964;SDS011;42923;53.220;6.528;2024-03-23T09:36:17;12.50;;;3.63;;
52964;SDS011;42923;53.220;6.528;2024-03-23T09:38:42;13.00;;;3.45;;
52964;SDS011;42923;53.220;6.528;2024-03-23T09:41:08;10.13;;;2.88;;
52964;SDS011;42923;53.220;6.528;2024-03-23T09:43:34;5.82;;;1.58;;
52964;SDS011;42923;53.220;6.528;2024-03-23T09:46:03;3.92;;;1.30;;
52964;SDS011;42923;53.220;6.528;2024-03-23T09:48:30;5.43;;;1.50;;
52964;SDS011;42923;53.220;6.528;2024-03-23T09:50:56;7.23;;;2.10;;
52964;SDS011;42923;53.220;6.528;2024-03-23T09:53:22;11.33;;;3.07;;
52964;SDS011;42923;53.220;6.528;2024-03-23T09:55:48;9.87;;;2.70;;
52964;SDS011;42923;53.220;6.528;2024-03-23T09:58:14;6.07;;;1.60;;
52964;SDS011;42923;53.220;6.528;2024-03-23T10:00:41;8.48;;;2.30;;
52964;SDS011;42923;53.220;6.528;2024-03-23T10:03:07;6.60;;;1.90;;
52964;SDS011;42923;53.220;6.528;2024-03-23T10:05:35;4.88;;;1.55;;
52964;SDS011;42923;53.220;6.528;2024-03-23T10:08:22;2.95;;;1.33;;
52964;SDS011;42923;53.220;6.528;2024-03-23T10:10:46;4.78;;;1.48;;
52964;SDS011;42923;53.220;6.528;2024-03-23T10:13:27;7.00;;;2.13;;
52964;SDS011;42923;53.220;6.528;2024-03-23T10:15:57;10.30;;;2.40;;
52964;SDS011;42923;53.220;6.528;2024-03-23T10:18:24;10.20;;;2.47;;
52964;SDS011;42923;53.220;6.528;2024-03-23T10:23:40;11.33;;;3.10;;
52964;SDS011;42923;53.220;6.528;2024-03-23T10:26:14;11.45;;;2.97;;
52964;SDS011;42923;53.220;6.528;2024-03-23T10:28:52;11.68;;;3.20;;
52964;SDS011;42923;53.220;6.528;2024-03-23T10:31:19;10.73;;;3.43;;
52964;SDS011;42923;53.220;6.528;2024-03-23T10:33:46;12.30;;;3.50;;
52964;SDS011;42923;53.220;6.528;2024-03-23T10:36:12;15.27;;;3.67;;
52964;SDS011;42923;53.220;6.528;2024-03-23T10:38:40;15.15;;;4.32;;
52964;SDS011;42923;53.220;6.528;2024-03-23T10:41:07;13.82;;;3.97;;
52964;SDS011;42923;53.220;6.528;2024-03-23T10:43:34;12.98;;;3.53;;
52964;SDS011;42923;53.220;6.528;2024-03-23T10:46:02;9.60;;;3.25;;
52964;SDS011;42923;53.220;6.528;2024-03-23T10:48:28;11.87;;;2.93;;
52964;SDS011;42923;53.220;6.528;2024-03-23T10:50:54;9.80;;;2.57;;
52964;SDS011;42923;53.220;6.528;2024-03-23T10:53:21;10.07;;;2.55;;
52964;SDS011;42923;53.220;6.528;2024-03-23T10:55:50;10.77;;;2.53;;
52964;SDS011;42923;53.220;6.528;2024-03-23T10:58:17;8.77;;;2.75;;
52964;SDS011;42923;53.220;6.528;2024-03-23T11:00:49;12.27;;;2.75;;
52964;SDS011;42923;53.220;6.528;2024-03-23T11:06:04;7.70;;;2.50;;
52964;SDS011;42923;53.220;6.528;2024-03-23T11:08:37;11.43;;;3.20;;
52964;SDS011;42923;53.220;6.528;2024-03-23T11:11:13;8.47;;;3.20;;
52964;SDS011;42923;53.220;6.528;2024-03-23T11:13:43;11.65;;;3.28;;
52964;SDS011;42923;53.220;6.528;2024-03-23T11:16:13;12.10;;;3.47;;
52964;SDS011;42923;53.220;6.528;2024-03-23T11:18:49;13.93;;;3.25;;
52964;SDS011;42923;53.220;6.528;2024-03-23T11:24:16;10.27;;;2.63;;
52964;SDS011;42923;53.220;6.528;2024-03-23T11:26:43;8.48;;;2.60;;
52964;SDS011;42923;53.220;6.528;2024-03-23T11:29:09;9.00;;;2.97;;
52964;SDS011;42923;53.220;6.528;2024-03-23T11:31:45;11.95;;;3.47;;
52964;SDS011;42923;53.220;6.528;2024-03-23T11:34:17;12.35;;;3.92;;
52964;SDS011;42923;53.220;6.528;2024-03-23T11:36:46;11.10;;;3.70;;
52964;SDS011;42923;53.220;6.528;2024-03-23T11:39:13;7.22;;;2.53;;
52964;SDS011;42923;53.220;6.528;2024-03-23T11:41:45;8.88;;;3.00;;
52964;SDS011;42923;53.220;6.528;2024-03-23T11:44:15;6.47;;;2.50;;
52964;SDS011;42923;53.220;6.528;2024-03-23T11:46:48;9.70;;;3.03;;
52964;SDS011;42923;53.220;6.528;2024-03-23T11:51:51;10.32;;;3.10;;
52964;SDS011;42923;53.220;6.528;2024-03-23T11:54:25;8.73;;;3.07;;
52964;SDS011;42923;53.220;6.528;2024-03-23T11:59:34;12.55;;;3.30;;
52964;SDS011;42923;53.220;6.528;2024-03-23T12:02:00;7.57;;;2.70;;
52964;SDS011;42923;53.220;6.528;2024-03-23T12:04:30;10.18;;;2.67;;
52964;SDS011;42923;53.220;6.528;2024-03-23T12:07:10;8.90;;;2.53;;
52964;SDS011;42923;53.220;6.528;2024-03-23T12:09:35;11.70;;;3.50;;
52964;SDS011;42923;53.220;6.528;2024-03-23T12:12:05;10.88;;;3.00;;
52964;SDS011;42923;53.220;6.528;2024-03-23T12:17:30;7.67;;;2.90;;
52964;SDS011;42923;53.220;6.528;2024-03-23T12:19:56;8.77;;;3.20;;
52964;SDS011;42923;53.220;6.528;2024-03-23T12:22:22;7.82;;;2.60;;
52964;SDS011;42923;53.220;6.528;2024-03-23T12:24:48;7.15;;;2.47;;
52964;SDS011;42923;53.220;6.528;2024-03-23T12:27:14;7.80;;;2.40;;
52964;SDS011;42923;53.220;6.528;2024-03-23T12:29:40;5.28;;;2.28;;
52964;SDS011;42923;53.220;6.528;2024-03-23T12:32:08;8.13;;;2.40;;
52964;SDS011;42923;53.220;6.528;2024-03-23T12:34:34;7.53;;;2.37;;
52964;SDS011;42923;53.220;6.528;2024-03-23T12:37:00;8.38;;;2.45;;
52964;SDS011;42923;53.220;6.528;2024-03-23T12:39:26;7.45;;;2.33;;
52964;SDS011;42923;53.220;6.528;2024-03-23T12:41:52;9.57;;;2.50;;
52964;SDS011;42923;53.220;6.528;2024-03-23T12:44:18;8.38;;;2.40;;
52964;SDS011;42923;53.220;6.528;2024-03-23T12:46:44;6.70;;;2.20;;
52964;SDS011;42923;53.220;6.528;2024-03-23T12:49:10;8.38;;;3.00;;
52964;SDS011;42923;53.220;6.528;2024-03-23T12:51:36;7.28;;;2.35;;
52964;SDS011;42923;53.220;6.528;2024-03-23T12:54:02;5.22;;;2.00;;
52964;SDS011;42923;53.220;6.528;2024-03-23T12:56:28;6.75;;;2.22;;
52964;SDS011;42923;53.220;6.528;2024-03-23T12:58:54;9.45;;;2.78;;
52964;SDS011;42923;53.220;6.528;2024-03-23T13:01:25;7.15;;;2.30;;
52964;SDS011;42923;53.220;6.528;2024-03-23T13:03:51;8.18;;;2.15;;
52964;SDS011;42923;53.220;6.528;2024-03-23T13:06:17;8.43;;;2.33;;
52964;SDS011;42923;53.220;6.528;2024-03-23T13:08:46;8.55;;;2.88;;
52964;SDS011;42923;53.220;6.528;2024-03-23T13:11:12;9.23;;;2.90;;
52964;SDS011;42923;53.220;6.528;2024-03-23T13:13:40;13.77;;;3.60;;
52964;SDS011;42923;53.220;6.528;2024-03-23T13:16:07;9.73;;;3.63;;
52964;SDS011;42923;53.220;6.528;2024-03-23T13:18:33;9.35;;;3.50;;
52964;SDS011;42923;53.220;6.528;2024-03-23T13:20:59;9.23;;;3.38;;
52964;SDS011;42923;53.220;6.528;2024-03-23T13:23:25;10.18;;;3.55;;
52964;SDS011;42923;53.220;6.528;2024-03-23T13:25:54;14.75;;;4.43;;
52964;SDS011;42923;53.220;6.528;2024-03-23T13:28:21;14.37;;;3.57;;
52964;SDS011;42923;53.220;6.528;2024-03-23T13:30:54;20.80;;;5.85;;
52964;SDS011;42923;53.220;6.528;2024-03-23T13:33:21;15.68;;;5.38;;
52964;SDS011;42923;53.220;6.528;2024-03-23T13:35:50;16.73;;;5.78;;
52964;SDS011;42923;53.220;6.528;2024-03-23T13:38:20;13.13;;;4.78;;
52964;SDS011;42923;53.220;6.528;2024-03-23T13:40:56;12.53;;;4.33;;
52964;SDS011;42923;53.220;6.528;2024-03-23T13:43:23;4.63;;;1.73;;
52964;SDS011;42923;53.220;6.528;2024-03-23T13:45:53;10.55;;;3.60;;
52964;SDS011;42923;53.220;6.528;2024-03-23T13:48:20;6.90;;;2.58;;
52964;SDS011;42923;53.220;6.528;2024-03-23T13:50:47;9.57;;;2.95;;
52964;SDS011;42923;53.220;6.528;2024-03-23T13:53:22;9.68;;;3.45;;
52964;SDS011;42923;53.220;6.528;2024-03-23T13:55:48;8.30;;;3.55;;
52964;SDS011;42923;53.220;6.528;2024-03-23T13:58:14;8.65;;;3.30;;
52964;SDS011;42923;53.220;6.528;2024-03-23T14:00:41;8.03;;;2.80;;
52964;SDS011;42923;53.220;6.528;2024-03-23T14:03:10;7.93;;;2.65;;
52964;SDS011;42923;53.220;6.528;2024-03-23T14:05:40;8.02;;;3.08;;
52964;SDS011;42923;53.220;6.528;2024-03-23T14:08:06;7.78;;;2.50;;
52964;SDS011;42923;53.220;6.528;2024-03-23T14:10:33;6.80;;;2.38;;
52964;SDS011;42923;53.220;6.528;2024-03-23T14:12:58;9.93;;;2.60;;
52964;SDS011;42923;53.220;6.528;2024-03-23T14:15:27;6.85;;;2.42;;
52964;SDS011;42923;53.220;6.528;2024-03-23T14:17:53;7.33;;;2.70;;
52964;SDS011;42923;53.220;6.528;2024-03-23T14:20:20;7.20;;;2.30;;
52964;SDS011;42923;53.220;6.528;2024-03-23T14:22:46;5.55;;;2.25;;
52964;SDS011;42923;53.220;6.528;2024-03-23T14:25:13;5.63;;;2.22;;
52964;SDS011;42923;53.220;6.528;2024-03-23T14:27:39;10.00;;;3.10;;
52964;SDS011;42923;53.220;6.528;2024-03-23T14:30:05;9.10;;;3.42;;
52964;SDS011;42923;53.220;6.528;2024-03-23T14:32:31;7.63;;;2.47;;
52964;SDS011;42923;53.220;6.528;2024-03-23T14:35:05;10.80;;;3.08;;
52964;SDS011;42923;53.220;6.528;2024-03-23T14:37:38;11.18;;;3.17;;
52964;SDS011;42923;53.220;6.528;2024-03-23T14:40:07;10.93;;;3.45;;
52964;SDS011;42923;53.220;6.528;2024-03-23T14:42:33;13.43;;;3.78;;
52964;SDS011;42923;53.220;6.528;2024-03-23T14:44:59;10.48;;;3.25;;
52964;SDS011;42923;53.220;6.528;2024-03-23T14:47:24;14.18;;;3.20;;
52964;SDS011;42923;53.220;6.528;2024-03-23T14:49:50;9.35;;;3.38;;
52964;SDS011;42923;53.220;6.528;2024-03-23T14:52:19;11.47;;;3.77;;
52964;SDS011;42923;53.220;6.528;2024-03-23T14:54:45;8.95;;;3.08;;
52964;SDS011;42923;53.220;6.528;2024-03-23T14:57:11;12.45;;;3.30;;
52964;SDS011;42923;53.220;6.528;2024-03-23T14:59:37;13.18;;;3.78;;
52964;SDS011;42923;53.220;6.528;2024-03-23T15:02:09;11.05;;;2.92;;
52964;SDS011;42923;53.220;6.528;2024-03-23T15:04:37;7.90;;;2.95;;
52964;SDS011;42923;53.220;6.528;2024-03-23T15:07:05;10.38;;;3.15;;
52964;SDS011;42923;53.220;6.528;2024-03-23T15:09:31;11.68;;;3.60;;
52964;SDS011;42923;53.220;6.528;2024-03-23T15:11:57;8.38;;;2.47;;
52964;SDS011;42923;53.220;6.528;2024-03-23T15:14:23;9.07;;;2.45;;
52964;SDS011;42923;53.220;6.528;2024-03-23T15:16:49;10.27;;;2.60;;
52964;SDS011;42923;53.220;6.528;2024-03-23T15:19:16;7.47;;;2.40;;
52964;SDS011;42923;53.220;6.528;2024-03-23T15:21:42;11.18;;;2.83;;
52964;SDS011;42923;53.220;6.528;2024-03-23T15:24:08;7.43;;;2.60;;
52964;SDS011;42923;53.220;6.528;2024-03-23T15:26:37;8.70;;;2.50;;
52964;SDS011;42923;53.220;6.528;2024-03-23T15:29:03;8.75;;;2.60;;
52964;SDS011;42923;53.220;6.528;2024-03-23T15:31:36;7.35;;;2.70;;
52964;SDS011;42923;53.220;6.528;2024-03-23T15:34:02;8.73;;;3.30;;
52964;SDS011;42923;53.220;6.528;2024-03-23T15:36:29;11.32;;;3.42;;
52964;SDS011;42923;53.220;6.528;2024-03-23T15:38:55;12.60;;;3.60;;
52964;SDS011;42923;53.220;6.528;2024-03-23T15:41:21;8.68;;;3.17;;
52964;SDS011;42923;53.220;6.528;2024-03-23T15:43:48;12.70;;;3.35;;
52964;SDS011;42923;53.220;6.528;2024-03-23T15:46:14;11.55;;;3.72;;